createdAt,value
2022-10-23T00:02:12.809Z,95.79
2022-10-23T00:04:43.785Z,95.40
2022-10-23T00:07:18.704Z,95.73
2022-10-23T00:09:48.036Z,95.78
2022-10-23T00:12:23.040Z,95.93
2022-10-23T00:14:53.744Z,95.67
2022-10-23T00:17:26.922Z,96.08
2022-10-23T00:19:55.792Z,96.34
2022-10-23T00:22:24.914Z,95.89
2022-10-23T00:24:53.496Z,96.03
2022-10-23T00:27:21.599Z,95.66
2022-10-23T00:29:50.350Z,95.19
2022-10-23T00:32:20.742Z,95.24
2022-10-23T00:34:51.418Z,95.59
2022-10-23T00:37:21.035Z,95.46
2022-10-23T00:39:51.097Z,94.86
2022-10-23T00:42:25.457Z,95.58
2022-10-23T00:45:22.188Z,94.86
2022-10-23T00:47:52.512Z,95.57
2022-10-23T00:50:26.354Z,95.78
2022-10-23T00:52:58.141Z,95.55
2022-10-23T00:55:31.869Z,95.61
2022-10-23T00:58:04.879Z,95.80
2022-10-23T01:00:45.021Z,96.18
2022-10-23T01:03:17.882Z,95.60
2022-10-23T01:05:55.029Z,95.30
2022-10-23T01:08:31.411Z,95.62
2022-10-23T01:11:07.000Z,95.75
2022-10-23T01:13:52.720Z,95.35
2022-10-23T01:16:30.971Z,95.29
2022-10-23T01:19:11.449Z,95.39
2022-10-23T01:22:02.509Z,95.63
2022-10-23T01:24:45.269Z,95.60
2022-10-23T01:27:29.058Z,95.43
2022-10-23T01:30:08.463Z,95.00
2022-10-23T01:32:48.305Z,95.38
2022-10-23T01:35:23.499Z,95.74
2022-10-23T01:38:02.706Z,96.72
2022-10-23T01:40:37.338Z,96.12
2022-10-23T01:43:13.140Z,95.49
2022-10-23T01:45:47.773Z,95.33
2022-10-23T01:48:26.533Z,95.56
2022-10-23T01:50:59.171Z,96.14
2022-10-23T01:53:35.455Z,95.69
2022-10-23T01:56:08.619Z,95.26
2022-10-23T01:58:40.937Z,95.30
2022-10-23T02:01:12.540Z,94.81
2022-10-23T02:03:43.135Z,95.49
2022-10-23T02:06:11.570Z,94.86
2022-10-23T02:08:39.721Z,95.76
2022-10-23T02:11:11.348Z,95.72
2022-10-23T02:13:48.611Z,95.50
2022-10-23T02:16:23.961Z,95.36
2022-10-23T02:19:02.029Z,95.23
2022-10-23T02:21:34.551Z,95.69
2022-10-23T02:24:06.788Z,94.71
2022-10-23T02:26:43.189Z,94.52
2022-10-23T02:29:21.708Z,95.29
2022-10-23T02:31:50.393Z,95.39
2022-10-23T02:34:19.827Z,95.22
2022-10-23T02:36:49.972Z,94.82
2022-10-23T02:39:18.198Z,95.58
2022-10-23T02:41:53.037Z,95.38
2022-10-23T02:44:37.733Z,95.12
2022-10-23T02:47:18.988Z,94.98
2022-10-23T02:50:00.074Z,95.25
2022-10-23T02:52:37.749Z,95.42
2022-10-23T02:55:22.232Z,96.08
2022-10-23T02:57:58.425Z,95.35
2022-10-23T03:00:34.730Z,95.38
2022-10-23T03:03:11.376Z,95.66
2022-10-23T03:05:42.024Z,95.32
2022-10-23T03:08:11.658Z,95.76
2022-10-23T03:10:40.298Z,95.50
2022-10-23T03:13:09.174Z,95.61
2022-10-23T03:15:39.087Z,95.61
2022-10-23T03:18:10.014Z,95.38
2022-10-23T03:20:41.494Z,95.39
2022-10-23T03:23:16.964Z,94.94
2022-10-23T03:25:45.907Z,95.78
2022-10-23T03:28:17.465Z,95.76
2022-10-23T03:30:48.146Z,95.26
2022-10-23T03:33:16.890Z,95.84
2022-10-23T03:35:49.581Z,95.47
2022-10-23T03:38:18.258Z,95.43
2022-10-23T03:40:47.527Z,95.33
2022-10-23T03:43:21.957Z,95.64
2022-10-23T03:45:58.240Z,95.71
2022-10-23T03:48:26.594Z,95.79
2022-10-23T03:50:55.479Z,96.17
2022-10-23T03:53:24.593Z,96.09
2022-10-23T03:55:53.835Z,95.64
2022-10-23T03:58:26.069Z,96.28
2022-10-23T04:00:57.721Z,96.35
2022-10-23T04:03:26.164Z,96.55
2022-10-23T04:05:59.088Z,96.35
2022-10-23T04:08:28.257Z,95.95
2022-10-23T04:10:59.762Z,96.01
2022-10-23T04:13:28.957Z,96.05
2022-10-23T04:16:01.533Z,96.23
2022-10-23T04:18:29.691Z,95.47
2022-10-23T04:20:58.385Z,95.65
2022-10-23T04:23:28.839Z,96.29
2022-10-23T04:26:00.883Z,95.84
2022-10-23T04:28:32.760Z,95.87
2022-10-23T04:31:04.313Z,96.09
2022-10-23T04:33:33.058Z,95.63
2022-10-23T04:36:01.924Z,96.10
2022-10-23T04:38:35.701Z,96.01
2022-10-23T04:41:07.215Z,95.78
2022-10-23T04:43:39.523Z,96.45
2022-10-23T04:46:09.685Z,96.25
2022-10-23T04:48:38.510Z,95.89
2022-10-23T04:51:11.024Z,95.72
2022-10-23T04:53:42.338Z,95.84
2022-10-23T04:56:15.171Z,96.10
2022-10-23T04:58:46.927Z,96.05
2022-10-23T05:01:17.107Z,95.62
2022-10-23T05:03:45.703Z,96.14
2022-10-23T05:06:14.521Z,95.85
2022-10-23T05:08:48.888Z,95.76
2022-10-23T05:11:21.325Z,95.71
2022-10-23T05:13:53.779Z,95.87
2022-10-23T05:16:37.293Z,95.77
2022-10-23T05:19:09.376Z,95.78
2022-10-23T05:21:40.521Z,95.48
2022-10-23T05:24:10.112Z,95.13
2022-10-23T05:26:49.258Z,95.52
2022-10-23T05:29:21.625Z,95.49
2022-10-23T05:31:56.711Z,95.33
2022-10-23T05:34:36.055Z,95.93
2022-10-23T05:37:13.869Z,96.43
2022-10-23T05:39:43.391Z,95.45
2022-10-23T05:42:14.033Z,95.85
2022-10-23T05:44:43.846Z,95.83
2022-10-23T05:47:13.877Z,95.55
2022-10-23T05:49:46.024Z,95.96
2022-10-23T05:52:15.522Z,96.39
2022-10-23T05:54:43.676Z,95.77
2022-10-23T05:57:11.490Z,96.00
2022-10-23T05:59:39.403Z,96.38
2022-10-23T06:02:07.237Z,96.69
2022-10-23T06:04:36.757Z,96.55
2022-10-23T06:07:05.093Z,96.35
2022-10-23T06:09:33.131Z,95.95
2022-10-23T06:12:02.384Z,96.16
2022-10-23T06:14:30.332Z,95.95
2022-10-23T06:16:58.184Z,96.21
2022-10-23T06:19:26.571Z,95.98
2022-10-23T06:22:00.370Z,95.55
2022-10-23T06:24:29.349Z,95.49
2022-10-23T06:26:57.434Z,96.20
2022-10-23T06:29:25.197Z,95.79
2022-10-23T06:31:52.955Z,95.69
2022-10-23T06:34:20.673Z,95.45
2022-10-23T06:36:48.416Z,95.08
2022-10-23T06:39:17.518Z,95.23
2022-10-23T06:41:45.432Z,95.41
2022-10-23T06:44:13.155Z,95.71
2022-10-23T06:46:40.903Z,95.15
2022-10-23T06:49:08.715Z,95.28
2022-10-23T06:51:36.555Z,95.18
2022-10-23T06:54:04.409Z,94.84
2022-10-23T06:56:35.066Z,95.08
2022-10-23T06:59:03.127Z,94.86
2022-10-23T07:01:30.984Z,94.61
2022-10-23T07:04:00.046Z,94.46
2022-10-23T07:06:27.969Z,95.33
2022-10-23T07:08:59.971Z,95.07
2022-10-23T07:11:27.831Z,95.00
2022-10-23T07:14:01.824Z,94.32
2022-10-23T07:16:30.250Z,94.54
2022-10-23T07:19:01.468Z,94.75
2022-10-23T07:21:30.922Z,94.45
2022-10-23T07:23:59.676Z,93.97
2022-10-23T07:26:27.512Z,94.55
2022-10-23T07:28:55.889Z,94.22
2022-10-23T07:31:28.196Z,94.35
2022-10-23T07:33:56.607Z,94.48
2022-10-23T07:36:24.713Z,94.46
2022-10-23T07:38:53.603Z,94.88
2022-10-23T07:41:21.540Z,94.97
2022-10-23T07:43:49.445Z,94.68
2022-10-23T07:46:17.537Z,94.92
2022-10-23T07:48:49.219Z,94.10
2022-10-23T07:51:18.532Z,94.10
2022-10-23T07:53:47.066Z,93.44
2022-10-23T07:56:17.070Z,93.43
2022-10-23T07:58:49.183Z,94.31
2022-10-23T08:01:21.588Z,93.96
2022-10-23T08:03:53.544Z,93.09
2022-10-23T08:06:24.724Z,92.21
2022-10-23T08:08:56.122Z,91.75
2022-10-23T08:11:28.180Z,91.25
2022-10-23T08:14:00.132Z,92.47
2022-10-23T08:16:29.446Z,90.33
2022-10-23T08:19:00.146Z,91.70
2022-10-23T08:21:28.994Z,91.58
2022-10-23T08:24:01.672Z,90.67
2022-10-23T08:26:30.773Z,89.50
2022-10-23T08:29:03.016Z,89.40
2022-10-23T08:31:31.241Z,88.96
2022-10-23T08:34:05.609Z,88.45
2022-10-23T08:36:38.585Z,87.03
2022-10-23T08:39:08.157Z,90.09
2022-10-23T08:41:38.107Z,87.96
2022-10-23T08:44:18.479Z,88.55
2022-10-23T08:46:50.947Z,86.42
2022-10-23T08:49:42.388Z,86.80
2022-10-23T08:52:18.419Z,86.75
2022-10-23T08:55:03.396Z,87.61
2022-10-23T08:57:42.870Z,87.32
2022-10-23T09:00:16.971Z,87.88
2022-10-23T09:02:48.164Z,86.32
2022-10-23T09:05:29.649Z,86.61
2022-10-23T09:08:09.471Z,86.86
2022-10-23T09:10:58.223Z,86.62
2022-10-23T09:13:41.986Z,84.48
2022-10-23T09:16:25.461Z,83.59
2022-10-23T09:19:00.980Z,83.20
2022-10-23T09:21:31.130Z,82.74
2022-10-23T09:24:01.423Z,81.84
2022-10-23T09:26:33.370Z,81.49
2022-10-23T09:29:15.674Z,82.61
2022-10-23T09:31:50.600Z,81.28
2022-10-23T09:34:22.163Z,79.95
2022-10-23T09:36:56.834Z,79.12
2022-10-23T09:39:30.684Z,79.51
2022-10-23T09:42:02.864Z,78.88
2022-10-23T09:44:33.863Z,78.66
2022-10-23T09:47:11.366Z,78.14
2022-10-23T09:49:48.378Z,77.28
2022-10-23T09:52:35.779Z,78.30
2022-10-23T09:55:20.724Z,78.16
2022-10-23T09:57:48.999Z,75.14
2022-10-23T10:00:19.668Z,74.48
2022-10-23T10:02:58.152Z,75.14
2022-10-23T10:05:28.436Z,75.91
2022-10-23T10:08:04.656Z,73.59
2022-10-23T10:10:39.093Z,70.60
2022-10-23T10:13:15.453Z,72.11
2022-10-23T10:15:52.062Z,72.61
2022-10-23T10:18:27.489Z,72.35
2022-10-23T10:21:17.885Z,71.99
2022-10-23T10:23:50.999Z,70.58
2022-10-23T10:26:31.636Z,69.86
2022-10-23T10:29:09.043Z,69.09
2022-10-23T10:31:50.663Z,69.02
2022-10-23T10:34:29.704Z,69.69
2022-10-23T10:37:03.053Z,69.84
2022-10-23T10:39:43.299Z,69.82
2022-10-23T10:42:43.397Z,68.09
2022-10-23T10:45:27.359Z,68.61
2022-10-23T10:48:16.012Z,68.34
2022-10-23T10:50:48.884Z,68.73
2022-10-23T10:53:25.427Z,68.08
2022-10-23T10:55:56.674Z,68.15
2022-10-23T10:58:35.481Z,69.44
2022-10-23T11:01:07.771Z,69.15
2022-10-23T11:03:42.427Z,70.61
2022-10-23T11:06:16.025Z,70.17
2022-10-23T11:08:56.381Z,72.02
2022-10-23T11:11:33.296Z,72.25
2022-10-23T11:14:01.427Z,72.15
2022-10-23T11:16:33.614Z,73.05
2022-10-23T11:19:11.407Z,72.69
2022-10-23T11:21:45.973Z,71.87
2022-10-23T11:24:57.260Z,71.73
2022-10-23T11:28:00.535Z,70.79
2022-10-23T11:30:40.421Z,68.79
2022-10-23T11:33:33.483Z,67.56
2022-10-23T11:36:18.125Z,66.53
2022-10-23T11:38:48.710Z,65.96
2022-10-23T11:41:27.059Z,67.50
2022-10-23T11:44:01.994Z,67.80
2022-10-23T11:46:34.071Z,66.30
2022-10-23T11:49:24.671Z,65.18
2022-10-23T11:52:05.636Z,64.63
2022-10-23T11:57:24.546Z,65.21
2022-10-23T11:59:57.600Z,65.81
2022-10-23T12:02:32.302Z,64.86
2022-10-23T12:05:06.431Z,66.04
2022-10-23T12:07:42.691Z,64.14
2022-10-23T12:10:31.670Z,63.01
2022-10-23T12:13:32.481Z,61.99
2022-10-23T12:16:02.704Z,62.74
2022-10-23T12:18:36.670Z,63.34
2022-10-23T12:21:06.304Z,63.67
2022-10-23T12:23:51.827Z,63.50
2022-10-23T12:26:50.619Z,62.16
2022-10-23T12:29:29.062Z,63.21
2022-10-23T12:32:09.206Z,64.29
2022-10-23T12:34:49.955Z,65.00
2022-10-23T12:37:59.407Z,65.02
2022-10-23T12:40:32.610Z,64.21
2022-10-23T12:43:02.987Z,64.65
2022-10-23T12:45:34.333Z,63.37
2022-10-23T12:48:04.181Z,62.13
2022-10-23T12:50:37.207Z,63.19
2022-10-23T12:53:18.105Z,62.46
2022-10-23T12:55:57.324Z,61.39
2022-10-23T12:58:27.591Z,61.73
2022-10-23T13:00:58.185Z,62.30
2022-10-23T13:03:30.167Z,61.52
2022-10-23T13:05:59.849Z,61.43
2022-10-23T13:08:36.007Z,61.74
2022-10-23T13:11:05.888Z,62.48
2022-10-23T13:13:33.869Z,62.10
2022-10-23T13:16:01.767Z,61.74
2022-10-23T13:18:42.361Z,62.17
2022-10-23T13:21:18.032Z,61.86
2022-10-23T13:23:46.876Z,60.94
2022-10-23T13:26:34.119Z,60.74
2022-10-23T13:29:07.424Z,60.73
2022-10-23T13:31:37.765Z,59.58
2022-10-23T13:34:28.063Z,59.33
2022-10-23T13:36:59.377Z,59.20
2022-10-23T13:39:29.835Z,58.65
2022-10-23T13:42:01.212Z,58.52
2022-10-23T13:44:29.076Z,60.00
2022-10-23T13:46:57.472Z,59.21
2022-10-23T13:49:26.786Z,60.07
2022-10-23T13:51:56.276Z,59.47
2022-10-23T13:56:59.210Z,60.02
2022-10-23T13:59:27.514Z,60.19
2022-10-23T14:01:55.801Z,60.57
2022-10-23T14:04:23.977Z,61.07
2022-10-23T14:06:58.547Z,60.97
2022-10-23T14:09:26.837Z,60.96
2022-10-23T14:11:54.798Z,62.48
2022-10-23T14:14:22.640Z,61.64
2022-10-23T14:16:52.700Z,62.03
2022-10-23T14:19:20.610Z,61.47
2022-10-23T14:21:48.601Z,61.98
2022-10-23T14:24:17.877Z,61.26
2022-10-23T14:26:45.693Z,62.81
2022-10-23T14:29:21.340Z,61.53
2022-10-23T14:31:51.025Z,62.90
2022-10-23T14:34:18.892Z,62.63
2022-10-23T14:36:56.759Z,63.18
2022-10-23T14:39:33.469Z,63.62
2022-10-23T14:42:01.722Z,62.93
2022-10-23T14:44:29.671Z,62.80
2022-10-23T14:46:58.577Z,63.33
2022-10-23T14:49:26.693Z,63.68
2022-10-23T14:51:54.615Z,63.28
2022-10-23T14:54:22.448Z,64.35
2022-10-23T14:56:51.623Z,64.96
2022-10-23T14:59:19.471Z,64.81
2022-10-23T15:01:48.423Z,65.04
2022-10-23T15:04:17.109Z,64.87
2022-10-23T15:06:46.380Z,65.27
2022-10-23T15:09:14.439Z,65.85
2022-10-23T15:11:42.478Z,65.46
2022-10-23T15:14:11.675Z,66.16
2022-10-23T15:16:42.011Z,67.02
2022-10-23T15:19:13.588Z,66.96
2022-10-23T15:21:45.320Z,67.63
2022-10-23T15:24:13.277Z,67.05
2022-10-23T15:26:43.067Z,67.52
2022-10-23T15:29:14.468Z,67.45
2022-10-23T15:31:49.460Z,68.36
2022-10-23T15:34:20.214Z,68.37
2022-10-23T15:36:49.320Z,69.00
2022-10-23T15:39:19.318Z,69.26
2022-10-23T15:41:48.070Z,69.73
2022-10-23T15:44:19.672Z,69.94
2022-10-23T15:46:48.309Z,69.87
2022-10-23T15:49:16.916Z,70.44
2022-10-23T15:51:45.742Z,71.02
2022-10-23T15:54:19.063Z,71.30
2022-10-23T15:56:52.309Z,71.34
2022-10-23T15:59:24.069Z,71.72
2022-10-23T16:01:52.965Z,72.05
2022-10-23T16:04:21.123Z,72.33
2022-10-23T16:06:49.389Z,72.50
2022-10-23T16:09:17.825Z,73.15
2022-10-23T16:11:45.749Z,72.77
2022-10-23T16:14:15.795Z,72.48
2022-10-23T16:16:45.574Z,72.83
2022-10-23T16:19:14.151Z,73.22
2022-10-23T16:21:42.705Z,72.86
2022-10-23T16:24:11.102Z,72.75
2022-10-23T16:26:39.538Z,74.43
2022-10-23T16:29:09.703Z,74.15
2022-10-23T16:31:37.775Z,73.93
2022-10-23T16:34:08.139Z,73.70
2022-10-23T16:36:38.922Z,73.16
2022-10-23T16:39:08.189Z,73.21
2022-10-23T16:41:37.630Z,73.46
2022-10-23T16:44:06.103Z,72.45
2022-10-23T16:46:35.416Z,73.42
2022-10-23T16:49:04.211Z,73.16
2022-10-23T16:51:34.450Z,73.28
2022-10-23T16:54:02.598Z,73.38
2022-10-23T16:56:31.479Z,73.20
2022-10-23T16:59:00.558Z,74.47
2022-10-23T17:01:31.122Z,74.23
2022-10-23T17:03:59.441Z,74.13
2022-10-23T17:06:30.146Z,74.75
2022-10-23T17:09:00.814Z,76.11
2022-10-23T17:11:30.441Z,76.11
2022-10-23T17:14:00.990Z,76.80
2022-10-23T17:16:30.580Z,76.84
2022-10-23T17:18:59.177Z,77.47
2022-10-23T17:21:27.316Z,77.40
2022-10-23T17:23:55.282Z,77.67
2022-10-23T17:26:24.622Z,77.87
2022-10-23T17:28:52.557Z,77.77
2022-10-23T17:31:22.716Z,77.92
2022-10-23T17:33:52.996Z,78.86
2022-10-23T17:36:22.352Z,81.05
2022-10-23T17:38:50.671Z,81.28
2022-10-23T17:41:20.777Z,82.68
2022-10-23T17:43:50.461Z,82.18
2022-10-23T17:46:19.589Z,81.26
2022-10-23T17:48:47.514Z,80.44
2022-10-23T17:51:17.337Z,79.53
2022-10-23T17:53:47.731Z,82.42
2022-10-23T17:56:22.426Z,85.40
2022-10-23T17:58:52.529Z,87.78
2022-10-23T18:01:33.249Z,89.17
2022-10-23T18:04:05.375Z,89.72
2022-10-23T18:06:35.439Z,91.33
2022-10-23T18:09:05.200Z,91.45
2022-10-23T18:11:36.359Z,91.77
2022-10-23T18:14:07.293Z,91.80
2022-10-23T18:16:37.158Z,92.36
2022-10-23T18:19:06.115Z,92.03
2022-10-23T18:21:34.761Z,92.48
2022-10-23T18:24:03.369Z,93.61
2022-10-23T18:26:34.902Z,93.37
2022-10-23T18:29:04.315Z,93.10
2022-10-23T18:31:33.775Z,93.62
2022-10-23T18:34:04.216Z,93.37
2022-10-23T18:36:34.657Z,93.70
2022-10-23T18:39:02.960Z,93.74
2022-10-23T18:41:34.597Z,93.41
2022-10-23T18:44:03.143Z,94.46
2022-10-23T18:46:31.380Z,93.99
2022-10-23T18:49:01.193Z,93.88
2022-10-23T18:51:32.907Z,93.29
2022-10-23T18:54:03.058Z,93.58
2022-10-23T18:56:34.291Z,93.37
2022-10-23T18:59:05.365Z,93.18
2022-10-23T19:01:33.935Z,94.07
2022-10-23T19:04:04.968Z,94.20
2022-10-23T19:06:38.648Z,94.27
2022-10-23T19:09:09.647Z,94.17
2022-10-23T19:11:38.197Z,94.14
2022-10-23T19:14:07.040Z,94.80
2022-10-23T19:16:39.159Z,94.84
2022-10-23T19:19:14.371Z,94.84
2022-10-23T19:21:43.843Z,94.89
2022-10-23T19:24:16.584Z,95.38
2022-10-23T19:26:46.342Z,94.98
2022-10-23T19:29:20.063Z,95.29
2022-10-23T19:31:49.980Z,95.07
2022-10-23T19:34:20.647Z,95.70
2022-10-23T19:36:48.920Z,95.10
2022-10-23T19:39:18.017Z,94.90
2022-10-23T19:41:46.780Z,95.33
2022-10-23T19:44:15.970Z,95.61
2022-10-23T19:46:45.103Z,95.74
2022-10-23T19:49:13.204Z,95.41
2022-10-23T19:51:50.395Z,96.02
2022-10-23T19:54:20.701Z,96.09
2022-10-23T19:56:49.265Z,95.52
2022-10-23T19:59:18.351Z,95.30
2022-10-23T20:01:48.917Z,95.70
2022-10-23T20:04:18.001Z,95.31
2022-10-23T20:06:48.829Z,96.05
2022-10-23T20:09:16.945Z,95.79
2022-10-23T20:11:45.539Z,95.97
2022-10-23T20:14:15.450Z,96.04
2022-10-23T20:16:45.922Z,96.59
2022-10-23T20:19:15.478Z,96.20
2022-10-23T20:21:45.989Z,96.60
2022-10-23T20:24:17.890Z,96.16
2022-10-23T20:26:50.045Z,96.17
2022-10-23T20:29:18.677Z,96.51
2022-10-23T20:31:46.709Z,96.15
2022-10-23T20:34:15.681Z,95.87
2022-10-23T20:36:46.804Z,95.45
2022-10-23T20:39:18.951Z,95.35
2022-10-23T20:41:47.029Z,95.68
2022-10-23T20:46:45.204Z,94.90
2022-10-23T20:49:13.841Z,94.87
2022-10-23T20:51:42.705Z,94.51
2022-10-23T20:54:10.700Z,94.70
2022-10-23T20:56:40.818Z,95.40
2022-10-23T20:59:12.179Z,94.67
2022-10-23T21:01:41.902Z,94.77
2022-10-23T21:04:12.972Z,94.80
2022-10-23T21:07:04.462Z,95.51
2022-10-23T21:09:31.629Z,94.28
2022-10-23T21:12:00.963Z,94.25
2022-10-23T21:14:28.845Z,93.95
2022-10-23T21:16:56.771Z,93.86
2022-10-23T21:19:24.953Z,95.53
2022-10-23T21:21:53.004Z,94.18
2022-10-23T21:24:20.992Z,94.04
2022-10-23T21:26:48.852Z,94.70
2022-10-23T21:29:19.468Z,94.66
2022-10-23T21:31:52.974Z,94.84
2022-10-23T21:34:21.062Z,95.06
2022-10-23T21:37:11.382Z,95.67
2022-10-23T21:39:36.570Z,95.10
2022-10-23T21:42:04.624Z,95.38
2022-10-23T21:44:34.075Z,95.76
2022-10-23T21:47:01.899Z,96.08
2022-10-23T21:49:30.227Z,95.58
2022-10-23T21:51:58.384Z,95.91
2022-10-23T21:54:26.389Z,96.54
2022-10-23T21:56:54.974Z,96.90
2022-10-23T21:59:25.923Z,96.86
2022-10-23T22:01:57.142Z,97.33
2022-10-23T22:04:25.239Z,97.29
2022-10-23T22:06:53.180Z,97.49
2022-10-23T22:09:22.543Z,97.60
2022-10-23T22:11:50.982Z,98.24
2022-10-23T22:14:19.012Z,98.01
2022-10-23T22:16:47.185Z,97.34
2022-10-23T22:19:18.302Z,97.36
2022-10-23T22:21:47.598Z,97.30
2022-10-23T22:24:17.441Z,97.01
2022-10-23T22:26:47.688Z,98.27
2022-10-23T22:29:18.042Z,98.90
2022-10-23T22:31:49.650Z,98.40
2022-10-23T22:34:28.692Z,98.62
2022-10-23T22:37:10.313Z,98.39
2022-10-23T22:39:38.402Z,98.26
2022-10-23T22:42:06.292Z,97.94
2022-10-23T22:44:34.480Z,97.87
2022-10-23T22:47:02.227Z,97.37
2022-10-23T22:49:31.477Z,97.28
2022-10-23T22:51:59.286Z,97.49
2022-10-23T22:54:27.283Z,97.37
2022-10-23T22:56:55.181Z,97.53
2022-10-23T22:59:23.025Z,97.31
2022-10-23T23:01:51.277Z,97.43
2022-10-23T23:07:10.838Z,98.20
2022-10-23T23:09:40.130Z,97.45
2022-10-23T23:12:09.761Z,97.43
2022-10-23T23:14:37.740Z,97.95
2022-10-23T23:17:06.276Z,97.23
2022-10-23T23:19:34.512Z,97.06
2022-10-23T23:22:02.681Z,96.30
2022-10-23T23:24:32.376Z,96.69
2022-10-23T23:27:00.782Z,96.64
2022-10-23T23:29:29.651Z,96.79
2022-10-23T23:31:58.014Z,96.84
2022-10-23T23:34:25.994Z,96.84
2022-10-23T23:36:53.990Z,96.83
2022-10-23T23:39:22.053Z,96.54
2022-10-23T23:41:51.461Z,95.91
2022-10-23T23:44:19.386Z,96.58
2022-10-23T23:46:47.341Z,96.60
2022-10-23T23:49:15.423Z,96.59
2022-10-23T23:51:43.430Z,95.86
2022-10-23T23:54:11.575Z,96.75
2022-10-23T23:56:39.779Z,96.46
2022-10-23T23:59:09.266Z,96.61
